createdAt,value
2019-06-20T00:03:07.263Z,20.38
2019-06-20T00:08:10.991Z,20.52
2019-06-20T00:13:14.409Z,20.61
2019-06-20T00:18:17.711Z,20.45
2019-06-20T00:23:20.824Z,20.27
2019-06-20T00:28:24.182Z,19.83
2019-06-20T00:33:27.230Z,19.90
2019-06-20T00:38:30.609Z,19.91
2019-06-20T00:43:33.675Z,19.88
2019-06-20T00:48:36.764Z,19.94
2019-06-20T00:53:40.131Z,19.81
2019-06-20T00:58:43.326Z,19.94
2019-06-20T01:03:46.494Z,20.24
2019-06-20T01:08:49.591Z,20.25
2019-06-20T01:13:53.021Z,20.38
2019-06-20T01:18:56.487Z,20.33
2019-06-20T01:23:59.535Z,20.29
2019-06-20T01:29:02.695Z,20.32
2019-06-20T01:34:05.939Z,20.23
2019-06-20T01:39:10.749Z,20.19
2019-06-20T01:44:13.882Z,20.23
2019-06-20T01:49:16.890Z,19.96
2019-06-20T01:54:20.090Z,19.93
2019-06-20T01:59:23.167Z,19.97
2019-06-20T02:04:26.289Z,19.87
2019-06-20T02:09:29.292Z,19.88
2019-06-20T02:14:32.446Z,19.85
2019-06-20T02:19:35.515Z,19.91
2019-06-20T02:24:38.740Z,19.89
2019-06-20T02:29:41.733Z,19.95
2019-06-20T02:34:44.897Z,20.02
2019-06-20T02:39:48.017Z,19.96
2019-06-20T02:44:52.431Z,19.75
2019-06-20T02:49:55.461Z,19.74
2019-06-20T02:54:58.993Z,19.60
2019-06-20T03:00:02.375Z,19.43
2019-06-20T03:05:06.076Z,19.51
2019-06-20T03:10:09.780Z,19.41
2019-06-20T03:15:13.163Z,19.36
2019-06-20T03:20:16.698Z,19.39
2019-06-20T03:25:20.413Z,19.38
2019-06-20T03:30:23.955Z,19.47
2019-06-20T03:35:27.363Z,19.48
2019-06-20T03:40:31.116Z,19.54
2019-06-20T03:45:35.854Z,19.52
2019-06-20T03:50:39.091Z,19.60
2019-06-20T03:55:42.247Z,19.77
2019-06-20T04:00:45.479Z,19.91
2019-06-20T04:05:48.718Z,19.95
2019-06-20T04:10:52.877Z,20.03
2019-06-20T04:15:55.866Z,20.00
2019-06-20T04:20:59.378Z,19.88
2019-06-20T04:26:02.705Z,19.99
2019-06-20T04:31:05.671Z,20.23
2019-06-20T04:36:08.710Z,20.11
2019-06-20T04:41:12.244Z,20.03
2019-06-20T04:46:27.344Z,20.18
2019-06-20T04:51:30.418Z,20.22
2019-06-20T04:56:33.489Z,20.12
2019-06-20T05:01:36.750Z,20.20
2019-06-20T05:06:43.643Z,20.43
2019-06-20T05:11:47.025Z,20.63
2019-06-20T05:16:50.182Z,20.80
2019-06-20T05:21:53.509Z,20.97
2019-06-20T05:26:56.605Z,21.06
2019-06-20T05:31:59.741Z,21.13
2019-06-20T05:37:02.916Z,21.33
2019-06-20T05:42:06.006Z,21.49
2019-06-20T05:47:13.577Z,21.57
2019-06-20T05:52:14.171Z,21.69
2019-06-20T05:57:17.297Z,21.49
2019-06-20T06:02:20.438Z,21.62
2019-06-20T06:07:23.503Z,21.70
2019-06-20T06:12:27.445Z,21.80
2019-06-20T06:17:30.522Z,21.74
2019-06-20T06:22:33.522Z,22.08
2019-06-20T06:27:36.565Z,22.20
2019-06-20T06:32:40.770Z,22.27
2019-06-20T06:37:44.100Z,22.48
2019-06-20T06:42:47.502Z,22.66
2019-06-20T06:47:50.487Z,22.82
2019-06-20T06:52:53.747Z,22.71
2019-06-20T06:57:57.028Z,22.56
2019-06-20T07:03:00.070Z,22.64
2019-06-20T07:08:03.621Z,22.73
2019-06-20T07:13:06.609Z,22.78
2019-06-20T07:18:09.996Z,23.05
2019-06-20T07:23:13.560Z,23.14
2019-06-20T07:28:16.551Z,23.22
2019-06-20T07:33:19.871Z,23.36
2019-06-20T07:38:23.930Z,23.37
2019-06-20T07:43:26.958Z,23.38
2019-06-20T07:48:30.270Z,23.57
2019-06-20T07:53:33.494Z,23.72
2019-06-20T07:58:36.569Z,24.09
2019-06-20T08:03:39.780Z,24.32
2019-06-20T08:08:42.861Z,24.55
2019-06-20T08:13:46.391Z,24.79
2019-06-20T08:18:49.531Z,24.48
2019-06-20T08:23:53.187Z,24.59
2019-06-20T08:29:10.258Z,25.07
2019-06-20T08:34:02.327Z,25.07
2019-06-20T08:39:09.115Z,25.24
2019-06-20T08:44:12.249Z,25.05
2019-06-20T08:49:15.379Z,25.85
2019-06-20T08:54:18.786Z,25.76
2019-06-20T08:59:24.665Z,25.70
2019-06-20T09:04:27.122Z,25.65
2019-06-20T09:09:30.231Z,26.11
2019-06-20T09:14:34.038Z,26.35
2019-06-20T09:19:37.154Z,26.26
2019-06-20T09:24:40.859Z,26.03
2019-06-20T09:29:44.421Z,26.35
2019-06-20T09:34:48.305Z,26.28
2019-06-20T09:39:52.097Z,26.06
2019-06-20T09:44:56.435Z,26.40
2019-06-20T09:49:59.718Z,26.32
2019-06-20T09:55:03.295Z,26.16
2019-06-20T10:00:10.668Z,26.24
2019-06-20T10:05:15.081Z,25.79
2019-06-20T10:10:19.108Z,25.53
2019-06-20T10:15:25.469Z,25.65
2019-06-20T10:20:29.454Z,25.89
2019-06-20T10:25:32.841Z,26.26
2019-06-20T10:30:36.146Z,26.11
2019-06-20T10:35:39.413Z,26.08
2019-06-20T10:40:44.695Z,26.55
2019-06-20T10:45:47.927Z,26.40
2019-06-20T10:50:52.037Z,26.48
2019-06-20T10:55:55.168Z,27.10
2019-06-20T11:00:59.634Z,27.31
2019-06-20T11:06:02.783Z,27.24
2019-06-20T11:11:05.906Z,27.45
2019-06-20T11:16:09.062Z,27.52
2019-06-20T11:21:12.138Z,27.71
2019-06-20T11:26:15.264Z,27.71
2019-06-20T11:31:18.431Z,27.39
2019-06-20T11:36:21.541Z,27.49
2019-06-20T11:41:24.929Z,27.65
2019-06-20T11:46:28.062Z,27.72
2019-06-20T11:51:31.239Z,27.78
2019-06-20T11:56:34.378Z,27.79
2019-06-20T12:01:38.394Z,28.01
2019-06-20T12:06:43.024Z,28.05
2019-06-20T12:11:46.784Z,28.11
2019-06-20T12:16:49.952Z,28.16
2019-06-20T12:21:53.453Z,27.90
2019-06-20T12:27:00.770Z,27.83
2019-06-20T12:32:03.771Z,27.94
2019-06-20T12:37:07.273Z,27.93
2019-06-20T12:42:10.729Z,28.34
2019-06-20T12:47:15.721Z,28.31
2019-06-20T12:52:19.286Z,28.24
2019-06-20T12:57:22.561Z,28.26
2019-06-20T13:02:26.558Z,27.72
2019-06-20T13:07:30.008Z,27.46
2019-06-20T13:12:33.277Z,27.89
2019-06-20T13:17:39.296Z,28.18
2019-06-20T13:22:42.916Z,28.14
2019-06-20T13:27:47.643Z,28.04
2019-06-20T13:32:51.015Z,27.94
2019-06-20T13:37:54.439Z,27.98
2019-06-20T13:42:57.668Z,28.06
2019-06-20T13:48:00.761Z,27.98
2019-06-20T13:53:03.860Z,28.02
2019-06-20T13:58:07.409Z,28.05
2019-06-20T14:03:10.718Z,27.91
2019-06-20T14:08:13.976Z,27.68
2019-06-20T14:13:19.503Z,27.66
2019-06-20T14:18:22.256Z,27.71
2019-06-20T14:23:26.351Z,27.51
2019-06-20T14:28:29.457Z,27.67
2019-06-20T14:33:32.880Z,27.77
2019-06-20T14:38:36.260Z,27.61
2019-06-20T14:43:39.341Z,25.63
2019-06-20T14:48:43.561Z,24.78
2019-06-20T14:53:49.441Z,25.16
2019-06-20T14:58:53.828Z,24.98
2019-06-20T15:03:57.427Z,24.92
2019-06-20T15:09:05.797Z,25.00
2019-06-20T15:14:06.357Z,24.78
2019-06-20T15:19:09.489Z,24.71
2019-06-20T15:24:12.567Z,24.76
2019-06-20T15:29:15.741Z,24.80
2019-06-20T15:34:19.167Z,24.57
2019-06-20T15:39:22.315Z,24.55
2019-06-20T15:44:25.586Z,24.55
2019-06-20T15:49:29.036Z,24.53
2019-06-20T15:54:32.037Z,24.48
2019-06-20T15:59:35.311Z,24.70
2019-06-20T16:04:38.508Z,24.77
2019-06-20T16:09:41.737Z,25.06
2019-06-20T16:14:45.189Z,25.14
2019-06-20T16:19:48.192Z,25.11
2019-06-20T16:24:51.424Z,25.26
2019-06-20T16:29:54.520Z,25.47
2019-06-20T16:34:57.889Z,25.63
2019-06-20T16:40:01.586Z,25.75
2019-06-20T16:45:05.300Z,25.58
2019-06-20T16:50:10.125Z,25.50
2019-06-20T16:55:14.254Z,25.38
2019-06-20T17:00:17.810Z,25.18
2019-06-20T17:05:21.267Z,25.11
2019-06-20T17:10:24.286Z,25.02
2019-06-20T17:15:27.472Z,24.95
2019-06-20T17:20:30.421Z,24.98
2019-06-20T17:25:33.634Z,24.96
2019-06-20T17:30:36.898Z,24.95
2019-06-20T17:35:39.990Z,25.05
2019-06-20T17:40:43.100Z,25.05
2019-06-20T17:45:46.162Z,25.00
2019-06-20T17:50:49.294Z,24.89
2019-06-20T17:55:52.320Z,24.77
2019-06-20T18:00:55.922Z,24.85
2019-06-20T18:05:59.164Z,24.73
2019-06-20T18:11:02.174Z,24.68
2019-06-20T18:16:05.419Z,24.55
2019-06-20T18:21:08.790Z,24.44
2019-06-20T18:26:12.664Z,24.36
2019-06-20T18:31:15.836Z,24.32
2019-06-20T18:36:18.842Z,24.13
2019-06-20T18:41:21.900Z,24.08
2019-06-20T18:46:25.038Z,24.10
2019-06-20T18:51:28.133Z,24.10
2019-06-20T18:56:31.182Z,24.08
2019-06-20T19:01:34.347Z,23.87
2019-06-20T19:06:37.456Z,23.35
2019-06-20T19:11:41.053Z,22.91
2019-06-20T19:16:44.149Z,22.29
2019-06-20T19:21:47.333Z,21.76
2019-06-20T19:26:50.484Z,21.56
2019-06-20T19:31:53.960Z,21.64
2019-06-20T19:36:57.231Z,21.55
2019-06-20T19:42:00.377Z,21.04
2019-06-20T19:47:03.492Z,21.07
2019-06-20T19:52:07.362Z,21.12
2019-06-20T19:57:10.611Z,21.13
2019-06-20T20:02:14.089Z,21.07
2019-06-20T20:07:17.201Z,20.99
2019-06-20T20:12:20.312Z,21.14
2019-06-20T20:17:23.406Z,21.47
2019-06-20T20:22:26.594Z,21.57
2019-06-20T20:27:29.907Z,21.58
2019-06-20T20:32:33.138Z,21.66
2019-06-20T20:37:36.274Z,21.66
2019-06-20T20:42:39.794Z,21.50
2019-06-20T20:47:42.895Z,21.41
2019-06-20T20:52:46.016Z,21.31
2019-06-20T20:57:49.154Z,21.30
2019-06-20T21:02:52.745Z,21.22
2019-06-20T21:07:55.952Z,21.25
2019-06-20T21:12:59.150Z,21.18
2019-06-20T21:18:02.197Z,21.25
2019-06-20T21:23:05.474Z,21.43
2019-06-20T21:28:08.513Z,21.36
2019-06-20T21:33:12.389Z,21.23
2019-06-20T21:38:15.943Z,21.14
2019-06-20T21:43:19.055Z,21.22
2019-06-20T21:48:22.142Z,21.33
2019-06-20T21:53:26.053Z,20.97
2019-06-20T21:58:29.979Z,20.94
2019-06-20T22:03:33.317Z,21.11
2019-06-20T22:08:36.403Z,21.01
2019-06-20T22:13:43.134Z,21.10
2019-06-20T22:18:46.407Z,20.81
2019-06-20T22:23:49.652Z,20.73
2019-06-20T22:28:52.634Z,20.60
2019-06-20T22:33:55.869Z,20.68
2019-06-20T22:38:58.929Z,20.69
2019-06-20T22:44:02.292Z,20.70
2019-06-20T22:49:05.313Z,20.80
2019-06-20T22:54:08.529Z,20.73
2019-06-20T22:59:11.807Z,20.69
2019-06-20T23:04:14.888Z,20.72
2019-06-20T23:09:17.905Z,20.68
2019-06-20T23:14:20.997Z,20.60
2019-06-20T23:19:24.249Z,20.55
2019-06-20T23:24:27.437Z,20.50
2019-06-20T23:29:30.506Z,20.22
2019-06-20T23:34:33.479Z,19.99
2019-06-20T23:39:37.016Z,20.08
2019-06-20T23:44:40.256Z,19.91
2019-06-20T23:49:43.416Z,19.81
2019-06-20T23:54:46.980Z,19.57
2019-06-20T23:59:50.237Z,19.78
